createdAt,value
2023-01-29T00:02:20.171Z,0.50
2023-01-29T00:07:23.980Z,0.30
2023-01-29T00:12:29.370Z,0.30
2023-01-29T00:17:34.758Z,0.50
2023-01-29T00:22:38.039Z,0.10
2023-01-29T00:27:43.935Z,0.30
2023-01-29T00:32:47.614Z,0.30
2023-01-29T00:37:51.457Z,0.50
2023-01-29T00:43:14.027Z,0.30
2023-01-29T00:48:18.042Z,0.30
2023-01-29T00:53:21.451Z,0.40
2023-01-29T00:58:34.915Z,0.30
2023-01-29T01:03:42.248Z,0.30
2023-01-29T01:09:03.746Z,0.20
2023-01-29T01:14:10.196Z,0.40
2023-01-29T01:19:17.236Z,0.40
2023-01-29T01:24:21.753Z,0.20
2023-01-29T01:29:28.047Z,0.20
2023-01-29T01:34:32.016Z,0.40
2023-01-29T01:39:35.334Z,0.60
2023-01-29T01:44:56.056Z,0.70
2023-01-29T01:50:03.095Z,0.90
2023-01-29T01:55:07.508Z,0.50
2023-01-29T02:00:15.455Z,0.40
2023-01-29T02:05:37.372Z,0.40
2023-01-29T02:10:51.742Z,0.40
2023-01-29T02:15:57.892Z,1.20
2023-01-29T02:21:29.326Z,0.30
2023-01-29T02:26:50.087Z,0.60
2023-01-29T02:32:03.042Z,0.50
2023-01-29T02:37:11.078Z,0.20
2023-01-29T02:42:18.535Z,0.30
2023-01-29T02:47:24.845Z,0.20
2023-01-29T02:52:33.134Z,0.30
2023-01-29T02:57:38.177Z,0.40
2023-01-29T03:02:44.573Z,0.50
2023-01-29T03:07:52.087Z,0.80
2023-01-29T03:13:05.119Z,0.60
2023-01-29T03:18:14.994Z,0.20
2023-01-29T03:23:24.159Z,0.40
2023-01-29T03:28:46.471Z,0.20
2023-01-29T03:33:55.987Z,0.00
2023-01-29T03:39:00.332Z,0.00
2023-01-29T03:44:10.552Z,-0.10
2023-01-29T03:49:19.887Z,0.00
2023-01-29T03:54:31.758Z,0.10
2023-01-29T03:59:41.099Z,-0.10
2023-01-29T04:05:06.525Z,0.10
2023-01-29T04:10:18.238Z,0.00
2023-01-29T04:15:22.350Z,0.00
2023-01-29T04:20:28.459Z,0.00
2023-01-29T04:25:37.097Z,0.00
2023-01-29T04:30:47.481Z,0.20
2023-01-29T04:36:06.132Z,0.10
2023-01-29T04:41:12.898Z,0.30
2023-01-29T04:46:18.527Z,0.10
2023-01-29T04:51:26.169Z,0.10
2023-01-29T04:56:32.566Z,0.30
2023-01-29T05:01:36.538Z,0.50
2023-01-29T05:06:41.516Z,0.30
2023-01-29T05:11:45.082Z,0.10
2023-01-29T05:16:50.850Z,0.00
2023-01-29T05:21:57.289Z,-0.20
2023-01-29T05:27:20.657Z,-0.20
2023-01-29T05:32:24.517Z,-0.40
2023-01-29T05:37:30.611Z,-0.40
2023-01-29T05:42:38.982Z,-0.50
2023-01-29T05:47:42.475Z,-0.20
2023-01-29T05:52:47.455Z,-0.40
2023-01-29T05:57:50.923Z,-0.30
2023-01-29T06:02:56.871Z,-0.20
2023-01-29T06:08:06.214Z,-0.40
2023-01-29T06:13:13.929Z,-0.30
2023-01-29T06:18:26.642Z,-0.10
2023-01-29T06:23:34.550Z,-0.20
2023-01-29T06:28:38.067Z,-0.20
2023-01-29T06:33:41.642Z,-0.20
2023-01-29T06:38:47.278Z,-0.20
2023-01-29T06:43:51.135Z,-0.10
2023-01-29T06:48:55.511Z,-0.30
2023-01-29T06:54:02.315Z,-0.50
2023-01-29T06:59:06.215Z,-0.50
2023-01-29T07:04:09.532Z,-0.40
2023-01-29T07:09:14.938Z,-0.60
2023-01-29T07:14:18.146Z,-0.60
2023-01-29T07:19:21.844Z,-0.50
2023-01-29T07:24:26.690Z,-0.50
2023-01-29T07:29:30.639Z,0.00
2023-01-29T07:34:34.930Z,-0.20
2023-01-29T07:39:40.084Z,-0.20
2023-01-29T07:44:43.447Z,-0.40
2023-01-29T07:49:46.740Z,-0.40
2023-01-29T07:54:51.506Z,-0.40
2023-01-29T07:59:54.631Z,-0.40
2023-01-29T08:04:58.025Z,-0.30
2023-01-29T08:10:02.728Z,-0.20
2023-01-29T08:15:06.855Z,-0.30
2023-01-29T08:20:17.715Z,-0.40
2023-01-29T08:25:24.137Z,0.10
2023-01-29T08:30:28.085Z,-0.30
2023-01-29T08:35:32.225Z,-0.30
2023-01-29T08:40:38.407Z,-0.20
2023-01-29T08:45:47.428Z,0.00
2023-01-29T08:50:52.625Z,0.10
2023-01-29T08:56:01.635Z,0.10
2023-01-29T09:01:09.695Z,0.10
2023-01-29T09:06:16.945Z,0.10
2023-01-29T09:11:27.664Z,0.10
2023-01-29T09:16:34.485Z,-0.10
2023-01-29T09:21:40.181Z,-0.30
2023-01-29T09:26:47.326Z,-0.50
2023-01-29T09:31:51.698Z,-0.30
2023-01-29T09:36:55.478Z,-0.10
2023-01-29T09:42:05.317Z,-0.10
2023-01-29T09:47:11.167Z,-0.10
2023-01-29T09:52:18.143Z,-0.10
2023-01-29T09:57:27.165Z,0.00
2023-01-29T10:02:49.604Z,-0.10
2023-01-29T10:08:22.432Z,0.00
2023-01-29T10:13:34.115Z,0.10
2023-01-29T10:19:01.272Z,0.20
2023-01-29T10:24:12.771Z,0.60
2023-01-29T10:29:20.033Z,0.60
2023-01-29T10:34:27.221Z,0.60
2023-01-29T10:39:31.616Z,0.80
2023-01-29T10:44:44.075Z,1.00
2023-01-29T10:50:24.123Z,1.20
2023-01-29T10:55:37.039Z,0.90
2023-01-29T11:00:45.065Z,0.90
2023-01-29T11:05:51.601Z,1.10
2023-01-29T11:11:01.051Z,1.00
2023-01-29T11:16:11.489Z,1.90
2023-01-29T11:21:24.411Z,1.10
2023-01-29T11:26:28.287Z,1.00
2023-01-29T11:31:39.623Z,1.20
2023-01-29T11:36:45.412Z,2.50
2023-01-29T11:42:14.074Z,3.20
2023-01-29T11:47:22.111Z,1.90
2023-01-29T11:52:29.107Z,1.60
2023-01-29T11:57:36.539Z,1.40
2023-01-29T12:02:47.439Z,1.90
2023-01-29T12:07:57.666Z,1.70
2023-01-29T12:13:10.297Z,2.10
2023-01-29T12:18:18.668Z,1.70
2023-01-29T12:23:26.892Z,1.90
2023-01-29T12:28:42.548Z,2.40
2023-01-29T12:33:51.197Z,2.90
2023-01-29T12:39:06.010Z,2.10
2023-01-29T12:44:20.558Z,3.00
2023-01-29T12:49:29.205Z,3.00
2023-01-29T12:54:42.690Z,4.10
2023-01-29T12:59:49.129Z,4.30
2023-01-29T13:04:57.016Z,2.80
2023-01-29T13:10:07.208Z,2.20
2023-01-29T13:15:18.365Z,3.10
2023-01-29T13:20:25.395Z,3.80
2023-01-29T13:25:28.935Z,4.30
2023-01-29T13:30:34.334Z,4.40
2023-01-29T13:35:42.743Z,5.00
2023-01-29T13:40:50.564Z,5.60
2023-01-29T13:46:00.108Z,4.50
2023-01-29T13:51:06.861Z,4.90
2023-01-29T13:56:51.959Z,4.90
2023-01-29T14:02:25.295Z,4.90
2023-01-29T14:08:04.216Z,5.00
2023-01-29T14:13:36.810Z,5.20
2023-01-29T14:18:49.715Z,5.10
2023-01-29T14:23:55.473Z,5.20
2023-01-29T14:29:07.047Z,4.80
2023-01-29T14:34:22.705Z,4.70
2023-01-29T14:39:38.318Z,4.60
2023-01-29T14:45:09.411Z,4.50
2023-01-29T14:51:04.377Z,4.30
2023-01-29T14:56:16.512Z,4.20
2023-01-29T15:01:40.493Z,4.50
2023-01-29T15:07:18.194Z,3.10
2023-01-29T15:12:36.675Z,3.20
2023-01-29T15:18:10.166Z,3.40
2023-01-29T15:23:27.597Z,4.10
2023-01-29T15:28:51.877Z,2.90
2023-01-29T15:34:09.632Z,2.90
2023-01-29T15:39:28.499Z,5.00
2023-01-29T15:44:39.109Z,2.90
2023-01-29T15:49:50.937Z,1.40
2023-01-29T15:55:15.641Z,1.80
2023-01-29T16:00:30.978Z,1.70
2023-01-29T16:05:38.096Z,1.40
2023-01-29T16:10:53.996Z,1.20
2023-01-29T16:16:02.469Z,1.00
2023-01-29T16:21:16.381Z,0.80
2023-01-29T16:26:38.464Z,0.60
2023-01-29T16:31:46.221Z,0.50
2023-01-29T16:36:54.542Z,2.40
2023-01-29T16:48:31.387Z,0.10
2023-01-29T16:54:05.115Z,0.00
2023-01-29T16:59:13.611Z,0.20
2023-01-29T17:04:19.933Z,0.40
2023-01-29T17:09:26.550Z,0.20
2023-01-29T17:14:29.788Z,0.20
2023-01-29T17:19:36.477Z,-0.20
2023-01-29T17:24:42.931Z,0.00
2023-01-29T17:29:47.497Z,-0.30
2023-01-29T17:34:55.805Z,0.00
2023-01-29T17:40:05.391Z,-0.30
2023-01-29T17:45:24.304Z,0.00
2023-01-29T17:50:29.032Z,-1.00
2023-01-29T17:55:34.516Z,-0.70
2023-01-29T18:00:41.958Z,-0.70
2023-01-29T18:05:45.929Z,-0.40
2023-01-29T18:10:50.870Z,-0.60
2023-01-29T18:15:54.462Z,1.10
2023-01-29T18:20:59.962Z,0.40
2023-01-29T18:26:08.605Z,1.40
2023-01-29T18:31:14.130Z,-0.20
2023-01-29T18:36:22.807Z,0.00
2023-01-29T18:41:29.438Z,0.10
2023-01-29T18:52:08.112Z,0.10
2023-01-29T18:58:26.223Z,1.30
2023-01-29T19:02:59.925Z,0.40
2023-01-29T19:08:24.480Z,0.40
2023-01-29T19:13:58.619Z,0.30
2023-01-29T19:19:02.755Z,-0.30
2023-01-29T19:24:10.037Z,1.80
2023-01-29T19:29:23.108Z,-0.30
2023-01-29T19:34:33.981Z,0.20
2023-01-29T19:39:53.856Z,0.90
2023-01-29T19:45:17.030Z,2.40
2023-01-29T19:50:55.773Z,0.40
2023-01-29T19:56:10.451Z,0.60
2023-01-29T20:01:20.830Z,0.60
2023-01-29T20:06:26.307Z,2.00
2023-01-29T20:11:30.824Z,0.30
2023-01-29T20:16:46.613Z,2.30
2023-01-29T20:22:06.335Z,0.30
2023-01-29T20:27:15.463Z,0.40
2023-01-29T20:32:35.896Z,0.50
2023-01-29T20:38:01.295Z,0.50
2023-01-29T20:43:11.481Z,2.60
2023-01-29T20:48:18.855Z,0.10
2023-01-29T20:53:30.904Z,1.00
2023-01-29T20:58:38.610Z,0.70
2023-01-29T21:03:43.613Z,2.00
2023-01-29T21:08:54.639Z,0.40
2023-01-29T21:13:59.563Z,1.90
2023-01-29T21:19:14.457Z,0.70
2023-01-29T21:24:19.500Z,0.60
2023-01-29T21:29:24.947Z,1.70
2023-01-29T21:34:35.539Z,0.40
2023-01-29T21:39:42.494Z,0.70
2023-01-29T21:44:48.691Z,0.80
2023-01-29T21:49:54.111Z,0.70
2023-01-29T21:55:06.285Z,2.80
2023-01-29T22:00:23.198Z,1.80
2023-01-29T22:05:38.575Z,0.90
2023-01-29T22:10:51.530Z,0.60
2023-01-29T22:16:05.114Z,0.70
2023-01-29T22:21:10.150Z,2.50
2023-01-29T22:26:23.072Z,0.70
2023-01-29T22:33:06.465Z,0.70
2023-01-29T22:38:16.248Z,0.80
2023-01-29T22:49:45.790Z,0.10
2023-01-29T22:54:59.117Z,0.70
2023-01-29T23:00:19.625Z,1.60
2023-01-29T23:05:51.942Z,1.00
2023-01-29T23:11:14.829Z,0.90
2023-01-29T23:16:26.924Z,0.60
2023-01-29T23:21:58.911Z,1.70
2023-01-29T23:27:27.876Z,0.60
2023-01-29T23:32:38.902Z,2.60
2023-01-29T23:37:53.743Z,-0.20
2023-01-29T23:43:07.328Z,0.60
2023-01-29T23:48:29.315Z,0.50
2023-01-29T23:53:51.807Z,0.50
2023-01-29T23:59:01.101Z,0.90
